Bangkok (Don Mueang), Thailand

6:03 AM ICT on July 31, 2015 (GMT +0700)
Khu Khot | | Change Station
CLOSE
Current Station
Personal Weather Station
Location: Pathum Thani, PATHUM THANI
Elevation: 15 ft
Nearby Weather Stations

Elev 15 ft 13.96 °N, 100.65 °E | Updated 24 seconds ago

Mostly Cloudy
Mostly Cloudy
73.9 °F
Feels Like 71 °F
N
2.7
Wind Variable Wind from ESE
Gusts 2.7 mph

Today
High -- | Low -- °F
--% Chance of Precip.
Yesterday
High -- | Low -- °F
Precip. -- in
6:01 AM 6:46 PM
Full, 100% visible
Pressure 29.83 in
Visibility 5.0 miles
Clouds Few 1800 ft
Mostly Cloudy 11000 ft
Mostly Cloudy 30000 ft
Heat Index 71 °F
Dew Point 72 °F
Humidity 93%
Rainfall 0.00 in
Snow Depth Not available.
UV 0 out of 12
Pollen Not available.
Air Quality Not available.
Flu Activity Not available.
METAR VTBD 302230Z 11005KT 8000 FEW018 BKN110 BKN300 24/23 Q1010 NOSIG

More Conditions Fewer Conditions

Pressure 29.83 in
Visibility 5.0 miles
Clouds Few 1800 ft
Mostly Cloudy 11000 ft
Mostly Cloudy 30000 ft
Heat Index 71 °F
Dew Point 72 °F
Humidity 93%
Rainfall 0.00 in
Snow Depth Not available.
UV 0 out of 12
Pollen Not available.
Air Quality Not available.
Flu Activity Not available.
METAR VTBD 302230Z 11005KT 8000 FEW018 BKN110 BKN300 24/23 Q1010 NOSIG

More Conditions Fewer Conditions

10-Day Weather Forecast

×

Almanac

Astronomy

Jul. 31, 2015 Rise Set
Actual Time
Civil Twilight
Nautical Twilight
Astronomical Twilight
Moon
Length of Visible Light
Length of Day
Tomorrow will be .
, % of the Moon is Illuminated

Today's Extremes

Country Highs Country Lows

Community

WunderPhotos

Upload Photos

1,842,532 photos uploaded!

WunderBlogs® & News

Nearby

Air Quality

  Air Quality AQ Index Pollutant
Not available.

Snow Depth

Station Depth Elevation

Earthquake Activity

City Distance Mag. Time & Date
Minimum magnitude displayed is 2.5.

Coastal Water Temperatures

Place Temperature

Stations

Nearby Weather Stations

Station Location Temp. Windchill Dew Point Humidity Wind Precip. Elev Updated Type